Michael S — WDE9794 — position and weather

sailwx.info

Track history (hours):
 
Tides and Currents Weather Stations Pressure Air Temp Water Temp Dewpoint Dewpoint Depression Visibility Wind Speed Wind Dir Waves Ship Positions

Michael S

Owner: Bisso Tow Boats Inc., New Orleans, LA. More information available from US FCC via Universal Licensing System and Coast Guard Vessel Documentation Center.

Last reported at 2016-Dec-05 03:11 UTC. Time now 2016-Dec-05 18:41 UTC.
Position N 29°57' W 090°02'.

Length 33 m; draft 3 m.

Type: Towing. MMSI: 367413700.

Date/timePositionNaut miles runAvg speedWind from/ knotsBaromVisibWave heightAir tempDewpointWater temp
2016-Dec-05 03:11N 29°57' W 090°02'6 8.9
2016-Dec-05 02:31N 29°55' W 090°08'7 7.8
2016-Dec-05 01:33N 29°58' W 090°15'2 0.2
2016-Dec-04 10:24N 29°57' W 090°18'2 0.1
2016-Dec-03 10:06N 29°56' W 090°20'  
2016-Nov-30 19:33N 29°58' W 090°18'7 7.0
2016-Nov-30 18:34N 29°57' W 090°09'2 0.6
2016-Nov-30 15:07N 29°55' W 090°08'0 0.0
2016-Nov-30 14:31N 29°55' W 090°08'0 0.1
2016-Nov-30 12:33N 29°56' W 090°08'1 0.8
2016-Nov-30 11:32N 29°56' W 090°08'1 0.7
2016-Nov-30 10:16N 29°55' W 090°08'0 0.0
2016-Nov-30 09:28N 29°55' W 090°08'0 0.5
2016-Nov-30 08:34N 29°56' W 090°08'0 0.2
2016-Nov-30 05:33N 29°55' W 090°08'0 0.0
2016-Nov-30 04:33N 29°55' W 090°08'0 0.0
2016-Nov-30 03:29N 29°55' W 090°08'0 0.0
2016-Nov-30 02:29N 29°55' W 090°08'5 5.2
2016-Nov-30 01:33N 29°57' W 090°03'4 0.8
2016-Nov-29 21:14N 29°56' W 089°59'6 8.2
2016-Nov-29 20:29N 29°55' W 090°06'5 5.2
2016-Nov-29 19:32N 29°55' W 090°12'0 0.0
2016-Nov-29 18:32N 29°55' W 090°12'1 0.9
2016-Nov-29 17:33N 29°56' W 090°11'7 2.1
2016-Nov-29 14:15N 29°57' W 090°03'2 0.5
2016-Nov-29 10:29N 29°57' W 090°01'3 0.1
2016-Nov-28 03:08N 29°56' W 089°58'3 0.2
2016-Nov-27 09:21N 29°57' W 090°01'1 0.1
2016-Nov-27 01:30N 29°57' W 090°00'1 0.1
2016-Nov-26 06:16N 29°57' W 090°02'6 8.6
2016-Nov-26 05:34N 29°55' W 090°08'0 0.2
2016-Nov-26 04:32N 29°55' W 090°08'1 0.9
2016-Nov-26 03:15N 29°56' W 090°09'4 0.3
2016-Nov-25 12:33N 29°55' W 090°04'1 1.0
2016-Nov-25 11:30N 29°55' W 090°05'2 0.3
2016-Nov-25 03:28N 29°55' W 090°08'  
Track history (hours):
 
Tides and Currents Weather Stations Pressure Air Temp Water Temp Dewpoint Dewpoint Depression Visibility Wind Speed Wind Dir Waves Ship Positions

Michael S

Owner: Bisso Tow Boats Inc., New Orleans, LA. More information available from US FCC via Universal Licensing System and Coast Guard Vessel Documentation Center.

Last reported at 2016-Dec-05 03:11 UTC. Time now 2016-Dec-05 18:41 UTC.
Position N 29°57' W 090°02'.

Length 33 m; draft 3 m.

Type: Towing. MMSI: 367413700.

Date/timePositionNaut miles runAvg speedWind from/ knotsBaromVisibWave heightAir tempDewpointWater temp
2016-Dec-05 03:11N 29°57' W 090°02'6 8.9
2016-Dec-05 02:31N 29°55' W 090°08'7 7.8
2016-Dec-05 01:33N 29°58' W 090°15'2 0.2
2016-Dec-04 10:24N 29°57' W 090°18'2 0.1
2016-Dec-03 10:06N 29°56' W 090°20'  
2016-Nov-30 19:33N 29°58' W 090°18'7 7.0
2016-Nov-30 18:34N 29°57' W 090°09'2 0.6
2016-Nov-30 15:07N 29°55' W 090°08'0 0.0
2016-Nov-30 14:31N 29°55' W 090°08'0 0.1
2016-Nov-30 12:33N 29°56' W 090°08'1 0.8
2016-Nov-30 11:32N 29°56' W 090°08'1 0.7
2016-Nov-30 10:16N 29°55' W 090°08'0 0.0
2016-Nov-30 09:28N 29°55' W 090°08'0 0.5
2016-Nov-30 08:34N 29°56' W 090°08'0 0.2
2016-Nov-30 05:33N 29°55' W 090°08'0 0.0
2016-Nov-30 04:33N 29°55' W 090°08'0 0.0
2016-Nov-30 03:29N 29°55' W 090°08'0 0.0
2016-Nov-30 02:29N 29°55' W 090°08'5 5.2
2016-Nov-30 01:33N 29°57' W 090°03'4 0.8
2016-Nov-29 21:14N 29°56' W 089°59'6 8.2
2016-Nov-29 20:29N 29°55' W 090°06'5 5.2
2016-Nov-29 19:32N 29°55' W 090°12'0 0.0
2016-Nov-29 18:32N 29°55' W 090°12'1 0.9
2016-Nov-29 17:33N 29°56' W 090°11'7 2.1
2016-Nov-29 14:15N 29°57' W 090°03'2 0.5
2016-Nov-29 10:29N 29°57' W 090°01'3 0.1
2016-Nov-28 03:08N 29°56' W 089°58'3 0.2
2016-Nov-27 09:21N 29°57' W 090°01'1 0.1
2016-Nov-27 01:30N 29°57' W 090°00'1 0.1
2016-Nov-26 06:16N 29°57' W 090°02'6 8.6
2016-Nov-26 05:34N 29°55' W 090°08'0 0.2
2016-Nov-26 04:32N 29°55' W 090°08'1 0.9
2016-Nov-26 03:15N 29°56' W 090°09'4 0.3
2016-Nov-25 12:33N 29°55' W 090°04'1 1.0
2016-Nov-25 11:30N 29°55' W 090°05'2 0.3
2016-Nov-25 03:28N 29°55' W 090°08'  

Dump ship's entire track history